createdAt,value
2019-05-20T00:00:46.250Z,331.57
2019-05-20T00:03:22.215Z,348.40
2019-05-20T00:05:57.676Z,533.75
2019-05-20T00:08:33.253Z,494.93
2019-05-20T00:11:08.761Z,495.42
2019-05-20T00:13:44.248Z,410.00
2019-05-20T00:16:19.667Z,359.15
2019-05-20T00:18:56.039Z,410.52
2019-05-20T00:21:31.553Z,350.00
2019-05-20T00:24:06.917Z,295.35
2019-05-20T00:26:42.468Z,511.52
2019-05-20T00:29:17.827Z,429.68
2019-05-20T00:31:53.368Z,516.88
2019-05-20T00:34:35.026Z,460.17
2019-05-20T00:37:05.963Z,301.95
2019-05-20T00:39:41.374Z,235.95
2019-05-20T00:42:17.091Z,362.68
2019-05-20T00:44:52.504Z,550.62
2019-05-20T00:47:28.023Z,355.45
2019-05-20T00:50:03.484Z,346.60
2019-05-20T00:52:39.129Z,416.68
2019-05-20T00:55:29.155Z,402.17
2019-05-20T00:58:04.597Z,318.05
2019-05-20T01:00:40.293Z,373.57
2019-05-20T01:03:15.705Z,272.63
2019-05-20T01:05:51.341Z,301.88
2019-05-20T01:08:26.947Z,405.03
2019-05-20T01:11:02.299Z,432.02
2019-05-20T01:13:37.750Z,329.23
2019-05-20T01:16:13.291Z,417.00
2019-05-20T01:18:48.676Z,479.57
2019-05-20T01:21:24.145Z,456.57
2019-05-20T01:23:59.734Z,384.27
2019-05-20T01:26:35.137Z,289.50
2019-05-20T01:29:10.547Z,494.13
2019-05-20T01:31:45.834Z,341.73
2019-05-20T01:34:21.244Z,296.63
2019-05-20T01:36:56.643Z,329.85
2019-05-20T01:39:32.167Z,487.50
2019-05-20T01:42:07.550Z,302.10
2019-05-20T01:44:43.338Z,468.50
2019-05-20T01:47:18.732Z,270.23
2019-05-20T01:49:54.485Z,218.40
2019-05-20T01:52:29.863Z,384.20
2019-05-20T01:55:06.055Z,269.80
2019-05-20T01:57:44.399Z,338.85
2019-05-20T02:00:20.002Z,279.65
2019-05-20T02:02:55.592Z,280.95
2019-05-20T02:05:31.019Z,341.82
2019-05-20T02:08:06.402Z,431.95
2019-05-20T02:10:41.903Z,418.80
2019-05-20T02:13:17.251Z,256.68
2019-05-20T02:16:02.744Z,263.82
2019-05-20T02:18:38.133Z,246.32
2019-05-20T02:21:13.693Z,222.90
2019-05-20T02:23:49.027Z,259.52
2019-05-20T02:26:24.561Z,267.85
2019-05-20T02:28:59.949Z,183.57
2019-05-20T02:31:35.745Z,240.55
2019-05-20T02:34:11.142Z,257.50
2019-05-20T02:36:46.642Z,229.97
2019-05-20T02:39:26.300Z,285.90
2019-05-20T02:41:59.250Z,227.72
2019-05-20T02:44:34.630Z,206.78
2019-05-20T02:47:10.072Z,336.48
2019-05-20T02:49:45.360Z,275.48
2019-05-20T02:52:20.787Z,197.53
2019-05-20T02:54:56.174Z,180.55
2019-05-20T02:57:31.755Z,327.60
2019-05-20T03:00:07.372Z,322.55
2019-05-20T03:02:42.794Z,366.17
2019-05-20T03:05:18.145Z,247.65
2019-05-20T03:07:53.576Z,184.15
2019-05-20T03:10:28.985Z,179.72
2019-05-20T03:13:05.385Z,183.47
2019-05-20T03:15:41.416Z,182.57
2019-05-20T03:18:16.846Z,163.65
2019-05-20T03:20:52.186Z,192.30
2019-05-20T03:23:27.606Z,194.37
2019-05-20T03:26:03.174Z,162.35
2019-05-20T03:28:38.587Z,213.60
2019-05-20T03:31:13.968Z,231.28
2019-05-20T03:33:49.399Z,179.20
2019-05-20T03:36:24.759Z,282.62
2019-05-20T03:39:00.169Z,162.32
2019-05-20T03:41:35.548Z,181.97
2019-05-20T03:44:10.990Z,223.72
2019-05-20T03:46:46.364Z,181.93
2019-05-20T03:49:21.882Z,210.53
2019-05-20T03:51:57.265Z,234.90
2019-05-20T03:54:32.689Z,197.20
2019-05-20T03:57:08.102Z,227.32
2019-05-20T03:59:43.524Z,227.43
2019-05-20T04:02:18.894Z,176.72
2019-05-20T04:05:02.398Z,219.62
2019-05-20T04:07:31.438Z,216.17
2019-05-20T04:10:08.220Z,194.57
2019-05-20T04:12:43.548Z,189.37
2019-05-20T04:15:18.924Z,154.45
2019-05-20T04:17:54.228Z,161.30
2019-05-20T04:20:29.600Z,207.32
2019-05-20T04:23:05.095Z,168.87
2019-05-20T04:25:40.566Z,194.28
2019-05-20T04:28:15.957Z,154.50
2019-05-20T04:30:51.444Z,225.07
2019-05-20T04:33:26.995Z,265.25
2019-05-20T04:36:02.418Z,189.47
2019-05-20T04:38:38.180Z,178.27
2019-05-20T04:41:13.609Z,126.38
2019-05-20T04:43:49.117Z,192.22
2019-05-20T04:46:24.535Z,116.90
2019-05-20T04:48:59.933Z,131.25
2019-05-20T04:51:35.428Z,145.00
2019-05-20T04:54:10.837Z,127.42
2019-05-20T04:56:46.515Z,142.05
2019-05-20T04:59:21.926Z,159.25
2019-05-20T05:01:57.245Z,122.42
2019-05-20T05:04:32.717Z,139.10
2019-05-20T05:07:08.179Z,132.05
2019-05-20T05:09:43.659Z,131.85
2019-05-20T05:12:19.125Z,138.32
2019-05-20T05:14:54.835Z,147.10
2019-05-20T05:17:30.230Z,130.10
2019-05-20T05:20:06.003Z,168.72
2019-05-20T05:22:41.417Z,179.72
2019-05-20T05:25:16.871Z,123.20
2019-05-20T05:27:52.329Z,124.53
2019-05-20T05:30:27.719Z,203.52
2019-05-20T05:33:03.197Z,138.07
2019-05-20T05:35:52.389Z,148.05
2019-05-20T05:38:15.688Z,193.93
2019-05-20T05:40:51.188Z,137.22
2019-05-20T05:43:26.638Z,129.03
2019-05-20T05:46:04.561Z,98.20
2019-05-20T05:48:39.975Z,134.10
2019-05-20T05:51:15.350Z,135.20
2019-05-20T05:53:50.710Z,118.30
2019-05-20T05:56:26.178Z,137.40
2019-05-20T05:59:01.871Z,117.10
2019-05-20T06:01:37.307Z,216.00
2019-05-20T06:04:12.735Z,114.90
2019-05-20T06:06:48.218Z,93.45
2019-05-20T06:09:23.643Z,128.20
2019-05-20T06:11:59.176Z,116.67
2019-05-20T06:14:34.616Z,147.53
2019-05-20T06:17:10.261Z,93.65
2019-05-20T06:19:45.788Z,118.77
2019-05-20T06:22:21.195Z,103.42
2019-05-20T06:24:58.651Z,104.85
2019-05-20T06:27:34.102Z,123.72
2019-05-20T06:30:10.885Z,91.55
2019-05-20T06:32:47.325Z,92.35
2019-05-20T06:35:22.735Z,80.28
2019-05-20T06:38:03.372Z,82.67
2019-05-20T06:40:38.764Z,75.52
2019-05-20T06:43:14.174Z,90.95
2019-05-20T06:45:49.679Z,74.40
2019-05-20T06:48:25.039Z,78.30
2019-05-20T06:51:00.455Z,88.05
2019-05-20T06:53:35.931Z,93.82
2019-05-20T06:56:11.364Z,90.15
2019-05-20T06:58:48.437Z,112.28
2019-05-20T07:01:24.206Z,91.60
2019-05-20T07:03:59.689Z,88.12
2019-05-20T07:06:45.786Z,88.67
2019-05-20T07:09:12.531Z,79.40
2019-05-20T07:11:52.935Z,94.97
2019-05-20T07:14:25.207Z,105.12
2019-05-20T07:17:04.871Z,98.87
2019-05-20T07:19:40.472Z,119.22
2019-05-20T07:22:15.939Z,112.47
2019-05-20T07:24:51.487Z,115.77
2019-05-20T07:27:26.934Z,107.32
2019-05-20T07:30:02.459Z,104.95
2019-05-20T07:32:38.484Z,146.90
2019-05-20T07:35:28.755Z,104.63
2019-05-20T07:37:51.086Z,133.87
2019-05-20T07:40:35.743Z,122.10
2019-05-20T07:43:11.327Z,105.10
2019-05-20T07:45:47.173Z,115.88
2019-05-20T07:48:22.745Z,115.97
2019-05-20T07:50:58.715Z,111.10
2019-05-20T07:53:35.135Z,119.13
2019-05-20T07:56:14.328Z,110.68
2019-05-20T07:58:52.831Z,116.35
2019-05-20T08:01:28.241Z,123.30
2019-05-20T08:04:03.675Z,109.67
2019-05-20T08:06:39.028Z,104.35
2019-05-20T08:09:14.409Z,100.53
2019-05-20T08:11:50.007Z,100.00
2019-05-20T08:14:25.495Z,92.53
2019-05-20T08:17:00.880Z,96.55
2019-05-20T08:19:36.479Z,105.32
2019-05-20T08:22:12.021Z,99.52
2019-05-20T08:24:47.593Z,93.30
2019-05-20T08:27:22.938Z,111.90
2019-05-20T08:29:58.444Z,91.90
2019-05-20T08:32:33.805Z,100.50
2019-05-20T08:35:09.283Z,104.05
2019-05-20T08:37:46.109Z,104.23
2019-05-20T08:40:21.928Z,87.65
2019-05-20T08:42:57.373Z,90.30
2019-05-20T08:45:33.093Z,93.82
2019-05-20T08:48:08.482Z,93.50
2019-05-20T08:50:43.986Z,83.75
2019-05-20T08:53:19.379Z,94.72
2019-05-20T08:55:59.346Z,75.85
2019-05-20T08:58:37.700Z,72.75
2019-05-20T09:01:13.230Z,96.10
2019-05-20T09:03:48.615Z,73.40
2019-05-20T09:06:24.327Z,70.83
2019-05-20T09:08:59.747Z,76.47
2019-05-20T09:11:35.231Z,74.40
2019-05-20T09:14:10.636Z,65.52
2019-05-20T09:16:46.206Z,66.25
2019-05-20T09:19:21.659Z,82.88
2019-05-20T09:21:57.039Z,87.20
2019-05-20T09:24:32.762Z,78.92
2019-05-20T09:27:08.185Z,73.95
2019-05-20T09:29:43.745Z,73.95
2019-05-20T09:32:19.300Z,65.47
2019-05-20T09:34:55.067Z,73.10
2019-05-20T09:37:31.551Z,67.85
2019-05-20T09:40:07.390Z,84.80
2019-05-20T09:42:44.428Z,81.80
2019-05-20T09:45:19.789Z,76.20
2019-05-20T09:47:55.329Z,92.15
2019-05-20T09:50:30.823Z,84.83
2019-05-20T09:53:07.522Z,78.55
2019-05-20T09:55:43.411Z,89.17
2019-05-20T09:58:18.981Z,76.82
2019-05-20T10:00:54.407Z,82.72
2019-05-20T10:03:29.907Z,88.40
2019-05-20T10:06:09.394Z,80.20
2019-05-20T10:08:46.595Z,83.10
2019-05-20T10:11:21.960Z,91.97
2019-05-20T10:13:58.528Z,83.00
2019-05-20T10:16:33.957Z,99.58
2019-05-20T10:19:11.745Z,102.42
2019-05-20T10:21:47.145Z,95.50
2019-05-20T10:24:22.546Z,110.30
2019-05-20T10:26:58.088Z,104.38
2019-05-20T10:29:33.427Z,95.32
2019-05-20T10:32:09.111Z,114.47
2019-05-20T10:34:44.558Z,105.30
2019-05-20T10:37:20.111Z,114.20
2019-05-20T10:39:55.563Z,125.50
2019-05-20T10:42:30.827Z,117.28
2019-05-20T10:45:07.267Z,106.00
2019-05-20T10:47:42.681Z,115.25
2019-05-20T10:50:19.806Z,104.63
2019-05-20T10:52:55.328Z,103.78
2019-05-20T10:55:31.895Z,110.15
2019-05-20T10:58:10.181Z,97.62
2019-05-20T11:01:01.100Z,115.03
2019-05-20T11:03:22.749Z,108.55
2019-05-20T11:05:59.278Z,102.47
2019-05-20T11:08:35.651Z,100.85
2019-05-20T11:11:14.129Z,98.50
2019-05-20T11:13:48.205Z,100.22
2019-05-20T11:16:23.782Z,95.65
2019-05-20T11:18:59.155Z,100.67
2019-05-20T11:21:34.566Z,102.82
2019-05-20T11:24:10.065Z,98.97
2019-05-20T11:26:45.571Z,98.10
2019-05-20T11:29:21.131Z,88.30
2019-05-20T11:31:56.608Z,90.85
2019-05-20T11:34:32.208Z,86.20
2019-05-20T11:37:08.918Z,86.95
2019-05-20T11:39:44.401Z,80.80
2019-05-20T11:42:19.889Z,83.33
2019-05-20T11:44:58.137Z,87.65
2019-05-20T11:47:33.629Z,78.55
2019-05-20T11:50:09.808Z,71.17
2019-05-20T11:52:45.259Z,70.62
2019-05-20T11:55:20.705Z,66.42
2019-05-20T11:58:14.011Z,74.53
2019-05-20T12:00:34.308Z,58.87
2019-05-20T12:03:09.902Z,58.08
2019-05-20T12:05:45.432Z,62.93
2019-05-20T12:08:20.970Z,58.95
2019-05-20T12:10:57.245Z,69.27
2019-05-20T12:13:33.430Z,66.65
2019-05-20T12:16:08.899Z,55.67
2019-05-20T12:18:45.235Z,62.35
2019-05-20T12:21:20.769Z,69.47
2019-05-20T12:23:56.326Z,68.67
2019-05-20T12:26:31.747Z,73.15
2019-05-20T12:29:07.519Z,79.67
2019-05-20T12:31:42.941Z,71.20
2019-05-20T12:34:18.582Z,72.05
2019-05-20T12:36:53.961Z,70.05
2019-05-20T12:39:29.487Z,69.50
2019-05-20T12:42:04.924Z,72.08
2019-05-20T12:44:41.405Z,70.52
2019-05-20T12:47:16.937Z,72.17
2019-05-20T12:49:52.712Z,72.08
2019-05-20T12:52:28.134Z,65.37
2019-05-20T12:55:08.551Z,65.97
2019-05-20T12:57:42.314Z,66.70
2019-05-20T13:00:19.619Z,68.07
2019-05-20T13:02:54.987Z,78.55
2019-05-20T13:05:30.505Z,77.53
2019-05-20T13:08:06.307Z,84.32
2019-05-20T13:10:41.751Z,79.65
2019-05-20T13:13:17.124Z,84.30
2019-05-20T13:15:52.567Z,83.67
2019-05-20T13:18:28.032Z,84.92
2019-05-20T13:21:03.996Z,86.02
2019-05-20T13:23:39.511Z,87.10
2019-05-20T13:26:14.940Z,86.47
2019-05-20T13:28:50.314Z,87.22
2019-05-20T13:31:25.758Z,93.12
2019-05-20T13:34:01.248Z,79.30
2019-05-20T13:36:37.902Z,91.47
2019-05-20T13:39:13.306Z,89.50
2019-05-20T13:41:48.884Z,90.65
2019-05-20T13:44:24.411Z,88.40
2019-05-20T13:47:00.037Z,79.40
2019-05-20T13:49:35.592Z,82.40
2019-05-20T13:52:11.486Z,89.75
2019-05-20T13:54:46.945Z,91.90
2019-05-20T13:57:22.509Z,92.75
2019-05-20T13:59:57.938Z,93.40
2019-05-20T14:02:33.453Z,95.17
2019-05-20T14:05:08.995Z,99.13
2019-05-20T14:07:44.799Z,112.62
2019-05-20T14:10:21.800Z,107.45
2019-05-20T14:12:57.242Z,105.83
2019-05-20T14:15:32.789Z,115.62
2019-05-20T14:18:11.281Z,100.80
2019-05-20T14:20:50.589Z,96.90
2019-05-20T14:23:26.787Z,104.17
2019-05-20T14:26:02.370Z,111.72
2019-05-20T14:28:38.081Z,93.65
2019-05-20T14:31:13.961Z,88.97
2019-05-20T14:33:49.480Z,98.85
2019-05-20T14:36:38.462Z,92.80
2019-05-20T14:39:06.450Z,96.25
2019-05-20T14:41:42.228Z,93.92
2019-05-20T14:44:17.562Z,92.10
2019-05-20T14:46:53.046Z,89.50
2019-05-20T14:49:28.568Z,93.55
2019-05-20T14:52:04.123Z,96.00
2019-05-20T14:54:40.201Z,90.72
2019-05-20T14:57:15.651Z,92.80
2019-05-20T14:59:51.802Z,89.83
2019-05-20T15:02:30.737Z,95.92
2019-05-20T15:05:04.622Z,89.80
2019-05-20T15:07:40.203Z,106.12
2019-05-20T15:10:15.904Z,100.62
2019-05-20T15:12:51.416Z,110.22
2019-05-20T15:15:26.867Z,98.75
2019-05-20T15:18:02.311Z,89.25
2019-05-20T15:20:38.015Z,95.17
2019-05-20T15:23:18.044Z,91.78
2019-05-20T15:25:53.766Z,86.20
2019-05-20T15:28:29.120Z,83.03
2019-05-20T15:31:04.544Z,86.15
2019-05-20T15:33:47.231Z,83.87
2019-05-20T15:36:22.742Z,81.20
2019-05-20T15:38:58.160Z,88.45
2019-05-20T15:41:33.544Z,74.60
2019-05-20T15:44:10.085Z,75.80
2019-05-20T15:46:45.489Z,78.70
2019-05-20T15:49:20.930Z,79.32
2019-05-20T15:51:56.348Z,74.65
2019-05-20T15:54:31.674Z,71.22
2019-05-20T15:57:07.223Z,73.10
2019-05-20T15:59:46.114Z,79.05
2019-05-20T16:02:19.701Z,70.97
2019-05-20T16:04:55.058Z,78.12
2019-05-20T16:07:30.561Z,69.70
2019-05-20T16:10:06.667Z,77.62
2019-05-20T16:12:42.296Z,77.40
2019-05-20T16:15:19.123Z,87.35
2019-05-20T16:17:54.565Z,80.17
2019-05-20T16:20:31.152Z,68.85
2019-05-20T16:23:06.748Z,59.35
2019-05-20T16:25:42.171Z,61.75
2019-05-20T16:28:17.637Z,58.73
2019-05-20T16:30:53.119Z,61.13
2019-05-20T16:33:28.618Z,59.95
2019-05-20T16:36:04.580Z,54.53
2019-05-20T16:38:40.205Z,59.58
2019-05-20T16:41:15.621Z,55.48
2019-05-20T16:43:51.265Z,57.60
2019-05-20T16:46:26.688Z,55.08
2019-05-20T16:49:02.114Z,53.28
2019-05-20T16:51:41.552Z,50.58
2019-05-20T16:54:17.063Z,45.35
2019-05-20T16:56:52.644Z,53.35
2019-05-20T16:59:31.022Z,49.10
2019-05-20T17:02:09.112Z,45.10
2019-05-20T17:04:43.897Z,51.48
2019-05-20T17:07:19.344Z,45.38
2019-05-20T17:09:54.960Z,47.13
2019-05-20T17:12:30.805Z,44.00
2019-05-20T17:15:06.863Z,40.30
2019-05-20T17:17:42.363Z,41.63
2019-05-20T17:20:18.109Z,42.53
2019-05-20T17:22:53.570Z,50.70
2019-05-20T17:25:29.475Z,42.50
2019-05-20T17:28:04.811Z,43.58
2019-05-20T17:30:45.558Z,42.83
2019-05-20T17:33:17.441Z,43.45
2019-05-20T17:35:53.309Z,40.63
2019-05-20T17:38:28.764Z,42.73
2019-05-20T17:41:04.452Z,43.60
2019-05-20T17:43:39.883Z,44.23
2019-05-20T17:46:17.613Z,41.50
2019-05-20T17:48:53.128Z,41.98
2019-05-20T17:51:28.683Z,47.10
2019-05-20T17:54:04.190Z,47.00
2019-05-20T17:56:39.710Z,49.55
2019-05-20T17:59:15.056Z,46.20
2019-05-20T18:01:51.543Z,51.40
2019-05-20T18:04:27.084Z,46.18
2019-05-20T18:07:02.586Z,47.50
2019-05-20T18:09:41.629Z,53.85
2019-05-20T18:12:17.207Z,54.27
2019-05-20T18:14:55.335Z,53.83
2019-05-20T18:17:30.809Z,54.75
2019-05-20T18:20:06.470Z,54.80
2019-05-20T18:22:41.991Z,56.88
2019-05-20T18:25:17.403Z,53.00
2019-05-20T18:27:52.840Z,62.08
2019-05-20T18:30:28.281Z,59.60
2019-05-20T18:33:03.723Z,59.65
2019-05-20T18:35:39.135Z,47.83
2019-05-20T18:38:14.663Z,50.23
2019-05-20T18:40:50.058Z,52.27
2019-05-20T18:43:25.771Z,48.78
2019-05-20T18:46:02.416Z,53.60
2019-05-20T18:48:37.967Z,59.05
2019-05-20T18:51:16.873Z,65.87
2019-05-20T18:53:52.398Z,69.22
2019-05-20T18:56:28.035Z,67.80
2019-05-20T18:59:03.527Z,64.10
2019-05-20T19:01:55.847Z,65.22
2019-05-20T19:04:17.186Z,71.53
2019-05-20T19:06:52.771Z,70.22
2019-05-20T19:09:28.352Z,70.35
2019-05-20T19:12:03.999Z,66.15
2019-05-20T19:14:39.428Z,69.15
2019-05-20T19:17:14.872Z,74.77
2019-05-20T19:19:50.534Z,67.67
2019-05-20T19:22:25.969Z,65.03
2019-05-20T19:25:02.899Z,78.10
2019-05-20T19:27:38.693Z,67.03
2019-05-20T19:30:14.348Z,72.75
2019-05-20T19:32:50.832Z,81.35
2019-05-20T19:35:30.848Z,74.00
2019-05-20T19:38:09.524Z,79.72
2019-05-20T19:40:45.118Z,81.60
2019-05-20T19:43:23.473Z,76.57
2019-05-20T19:45:59.130Z,86.95
2019-05-20T19:48:39.767Z,91.15
2019-05-20T19:51:25.354Z,88.82
2019-05-20T19:54:02.101Z,103.07
2019-05-20T19:56:37.828Z,101.92
2019-05-20T19:59:13.228Z,98.17
2019-05-20T20:01:54.756Z,98.80
2019-05-20T20:04:30.089Z,100.18
2019-05-20T20:07:08.723Z,110.20
2019-05-20T20:09:44.225Z,112.25
2019-05-20T20:12:19.867Z,136.52
2019-05-20T20:14:55.255Z,128.02
2019-05-20T20:17:30.850Z,120.28
2019-05-20T20:20:06.430Z,130.37
2019-05-20T20:22:42.022Z,113.47
2019-05-20T20:25:18.511Z,124.95
2019-05-20T20:27:56.250Z,143.22
2019-05-20T20:30:31.656Z,141.18
2019-05-20T20:33:07.947Z,137.37
2019-05-20T20:35:43.432Z,131.32
2019-05-20T20:38:19.256Z,147.20
2019-05-20T20:40:54.770Z,137.37
2019-05-20T20:43:32.252Z,133.25
2019-05-20T20:46:07.648Z,133.72
2019-05-20T20:48:43.254Z,134.32
2019-05-20T20:51:18.654Z,135.37
2019-05-20T20:53:54.096Z,134.18
2019-05-20T20:56:29.475Z,131.97
2019-05-20T20:59:04.998Z,123.02
2019-05-20T21:01:40.448Z,121.72
2019-05-20T21:04:15.862Z,107.55
2019-05-20T21:06:51.201Z,102.42
2019-05-20T21:09:26.703Z,109.25
2019-05-20T21:12:02.192Z,114.80
2019-05-20T21:14:37.635Z,117.97
2019-05-20T21:17:13.153Z,119.00
2019-05-20T21:19:48.589Z,103.40
2019-05-20T21:22:23.967Z,107.35
2019-05-20T21:24:59.437Z,92.17
2019-05-20T21:27:34.784Z,100.58
2019-05-20T21:30:10.564Z,96.32
2019-05-20T21:32:45.950Z,98.45
2019-05-20T21:35:24.357Z,97.55
2019-05-20T21:37:59.777Z,95.85
2019-05-20T21:40:36.287Z,97.67
2019-05-20T21:43:11.657Z,100.80
2019-05-20T21:45:47.082Z,108.67
2019-05-20T21:48:22.488Z,96.10
2019-05-20T21:50:57.913Z,103.65
2019-05-20T21:53:33.345Z,105.63
2019-05-20T21:56:10.324Z,99.30
2019-05-20T21:58:45.678Z,111.65
2019-05-20T22:01:21.157Z,95.15
2019-05-20T22:03:56.618Z,96.00
2019-05-20T22:06:32.188Z,97.82
2019-05-20T22:09:07.832Z,89.20
2019-05-20T22:11:43.480Z,90.28
2019-05-20T22:14:18.817Z,93.17
2019-05-20T22:16:54.247Z,97.67
2019-05-20T22:19:30.704Z,93.10
2019-05-20T22:22:31.049Z,96.35
2019-05-20T22:25:06.776Z,92.47
2019-05-20T22:27:42.235Z,85.75
2019-05-20T22:30:17.651Z,83.58
2019-05-20T22:32:56.742Z,87.95
2019-05-20T22:35:32.310Z,87.22
2019-05-20T22:38:07.714Z,87.57
2019-05-20T22:40:42.995Z,92.00
2019-05-20T22:43:18.530Z,87.37
2019-05-20T22:45:53.903Z,91.75
2019-05-20T22:48:29.219Z,90.53
2019-05-20T22:51:04.721Z,95.35
2019-05-20T22:53:40.248Z,97.12
2019-05-20T22:56:15.680Z,99.55
2019-05-20T22:58:50.986Z,102.10
2019-05-20T23:01:26.423Z,105.92
2019-05-20T23:04:01.991Z,91.82
2019-05-20T23:06:37.433Z,94.80
2019-05-20T23:09:14.907Z,93.20
2019-05-20T23:11:49.925Z,84.40
2019-05-20T23:14:25.572Z,88.82
2019-05-20T23:17:00.930Z,96.47
2019-05-20T23:19:36.351Z,96.72
2019-05-20T23:22:11.738Z,92.67
2019-05-20T23:24:47.241Z,98.37
2019-05-20T23:27:22.596Z,95.72
2019-05-20T23:29:57.996Z,95.72
2019-05-20T23:32:33.277Z,98.55
2019-05-20T23:35:08.772Z,98.27
2019-05-20T23:37:45.722Z,100.58
2019-05-20T23:40:21.199Z,100.45
2019-05-20T23:42:56.570Z,106.32
2019-05-20T23:45:32.023Z,109.48
2019-05-20T23:48:07.589Z,99.90
2019-05-20T23:50:43.053Z,102.95
2019-05-20T23:53:18.427Z,117.25
2019-05-20T23:55:53.867Z,115.65
2019-05-20T23:58:29.265Z,104.43
